Time;durP1;ratioP1;P1;durP2;ratioP2;P2;SDS_P1;SDS_P2;PMS_P1;PMS_P2;Temp;Humidity;BMP_temperature;BMP_pressure;BME280_temperature;BME280_humidity;BME280_pressure;Samples;Min_cycle;Max_cycle;Signal;HPM_P1;HPM_P2
2023/12/26 00:01:30;;;;;;;1999.90;999.90;;;;;;;;;;5058495;28;20643;-79
2023/12/26 00:03:58;;;;;;;1999.90;999.90;;;;;;;;;;5068945;28;20198;-76
2023/12/26 00:06:25;;;;;;;1999.90;999.90;;;;;;;;;;5068989;28;20191;-80
2023/12/26 00:08:53;;;;;;;1999.90;999.90;;;;;;;;;;5068940;28;20964;-76
2023/12/26 00:11:20;;;;;;;1999.90;999.90;;;;;;;;;;5068989;28;20213;-79
2023/12/26 00:13:48;;;;;;;1999.90;999.90;;;;;;;;;;5068808;28;20199;-79
2023/12/26 00:16:17;;;;;;;1999.90;999.90;;;;;;;;;;5069654;28;20305;-78
2023/12/26 00:18:44;;;;;;;1999.90;999.90;;;;;;;;;;5067867;28;20194;-79
2023/12/26 00:21:12;;;;;;;1999.90;999.90;;;;;;;;;;5068969;28;20222;-81
2023/12/26 00:23:39;;;;;;;1999.90;999.90;;;;;;;;;;5067389;28;20293;-77
2023/12/26 00:26:07;;;;;;;1999.90;999.90;;;;;;;;;;5068767;28;20539;-81
2023/12/26 00:28:34;;;;;;;1999.90;999.90;;;;;;;;;;5048157;28;20187;-77
2023/12/26 00:31:02;;;;;;;1999.90;999.90;;;;;;;;;;5069230;28;20187;-80
2023/12/26 00:33:31;;;;;;;1999.90;999.90;;;;;;;;;;5021797;28;20210;-80
2023/12/26 00:35:59;;;;;;;1999.90;999.90;;;;;;;;;;5067667;28;20355;-79
2023/12/26 00:38:27;;;;;;;1999.90;999.90;;;;;;;;;;5068362;28;20194;-79
2023/12/26 00:40:54;;;;;;;1999.90;999.90;;;;;;;;;;5067660;28;20193;-80
2023/12/26 00:43:21;;;;;;;1999.90;999.90;;;;;;;;;;5068426;28;20191;-80
2023/12/26 00:45:49;;;;;;;1999.90;999.90;;;;;;;;;;5067900;28;20285;-79
2023/12/26 00:48:16;;;;;;;1999.90;999.90;;;;;;;;;;5068358;28;20197;-80
2023/12/26 00:50:45;;;;;;;1999.90;999.90;;;;;;;;;;5049616;28;20193;-78
2023/12/26 00:53:12;;;;;;;1999.90;999.90;;;;;;;;;;5068112;28;20744;-78
2023/12/26 00:55:39;;;;;;;1999.90;999.90;;;;;;;;;;5049614;28;20213;-79
2023/12/26 00:58:06;;;;;;;1999.90;999.90;;;;;;;;;;5057379;28;20210;-79
2023/12/26 01:00:34;;;;;;;1999.90;999.90;;;;;;;;;;5068040;28;20224;-78
2023/12/26 01:03:01;;;;;;;1999.90;999.90;;;;;;;;;;5066878;28;20213;-77
2023/12/26 01:05:29;;;;;;;1999.90;999.90;;;;;;;;;;5068619;28;20203;-79
2023/12/26 01:07:58;;;;;;;1999.90;999.90;;;;;;;;;;5049378;28;20639;-75
2023/12/26 01:10:25;;;;;;;1999.90;999.90;;;;;;;;;;5076799;28;20260;-79
2023/12/26 01:12:53;;;;;;;1999.90;999.90;;;;;;;;;;5067955;28;20288;-80
2023/12/26 01:15:20;;;;;;;1999.90;999.90;;;;;;;;;;5067537;28;20285;-79
2023/12/26 01:17:47;;;;;;;1999.90;999.90;;;;;;;;;;5071591;28;20223;-77
2023/12/26 01:20:15;;;;;;;1999.90;999.90;;;;;;;;;;5053670;28;20205;-79
2023/12/26 01:22:42;;;;;;;1999.90;999.90;;;;;;;;;;5067522;28;20219;-80
2023/12/26 01:25:11;;;;;;;1999.90;999.90;;;;;;;;;;5049366;28;20216;-80
2023/12/26 01:27:39;;;;;;;1999.90;999.90;;;;;;;;;;5067443;28;20194;-80
2023/12/26 01:30:07;;;;;;;1999.90;999.90;;;;;;;;;;5067207;28;20651;-79
2023/12/26 01:32:34;;;;;;;1999.90;999.90;;;;;;;;;;5077822;28;20211;-81
2023/12/26 01:35:01;;;;;;;1999.90;999.90;;;;;;;;;;5052457;28;20217;-77
2023/12/26 01:37:29;;;;;;;1999.90;999.90;;;;;;;;;;5049881;28;20289;-81
2023/12/26 01:39:56;;;;;;;1999.90;999.90;;;;;;;;;;5067194;28;20667;-80
2023/12/26 01:42:25;;;;;;;1999.90;999.90;;;;;;;;;;5067190;28;20232;-80
2023/12/26 01:44:52;;;;;;;1999.90;999.90;;;;;;;;;;5067098;28;20276;-81
2023/12/26 01:47:20;;;;;;;1999.90;999.90;;;;;;;;;;5053944;28;20201;-78
2023/12/26 01:49:47;;;;;;;1999.90;999.90;;;;;;;;;;5066644;28;20193;-80
2023/12/26 01:52:17;;;;;;;1999.90;999.90;;;;;;;;;;5053003;28;20299;-81
2023/12/26 01:54:46;;;;;;;1999.90;999.90;;;;;;;;;;5050600;28;20292;-81
2023/12/26 01:57:13;;;;;;;1999.90;999.90;;;;;;;;;;5052264;28;20211;-81
2023/12/26 01:59:42;;;;;;;1999.90;999.90;;;;;;;;;;5066811;28;20662;-80
2023/12/26 02:02:09;;;;;;;1999.90;999.90;;;;;;;;;;5049559;28;20220;-80
2023/12/26 02:04:39;;;;;;;1999.90;999.90;;;;;;;;;;5066523;28;20675;-81
2023/12/26 02:07:08;;;;;;;1999.90;999.90;;;;;;;;;;5049274;28;20212;-81
2023/12/26 02:09:37;;;;;;;1999.90;999.90;;;;;;;;;;5054564;28;20219;-81
2023/12/26 02:12:04;;;;;;;1999.90;999.90;;;;;;;;;;5050744;28;20197;-81
2023/12/26 02:14:32;;;;;;;1999.90;999.90;;;;;;;;;;5051601;28;20533;-80
2023/12/26 02:17:03;;;;;;;1999.90;999.90;;;;;;;;;;5048482;28;20234;-81
2023/12/26 02:19:30;;;;;;;1999.90;999.90;;;;;;;;;;5067443;28;20201;-78
2023/12/26 02:21:58;;;;;;;1999.90;999.90;;;;;;;;;;5066048;28;20222;-79
2023/12/26 02:24:26;;;;;;;1999.90;999.90;;;;;;;;;;5059971;28;20206;-79
2023/12/26 02:26:55;;;;;;;1999.90;999.90;;;;;;;;;;5065984;28;20195;-79
2023/12/26 02:29:24;;;;;;;1999.90;999.90;;;;;;;;;;5065920;28;20296;-80
2023/12/26 02:31:52;;;;;;;1999.90;999.90;;;;;;;;;;5066438;28;20192;-80
2023/12/26 02:34:19;;;;;;;1999.90;999.90;;;;;;;;;;5066294;28;20192;-74
2023/12/26 02:36:47;;;;;;;1999.90;999.90;;;;;;;;;;5066332;28;20280;-73
2023/12/26 02:39:15;;;;;;;1999.90;999.90;;;;;;;;;;5066127;28;20194;-79
2023/12/26 02:41:45;;;;;;;1999.90;999.90;;;;;;;;;;5066469;28;20250;-78
2023/12/26 02:44:12;;;;;;;1999.90;999.90;;;;;;;;;;5066630;28;20195;-78
2023/12/26 02:46:39;;;;;;;1999.90;999.90;;;;;;;;;;5065978;28;20184;-80
2023/12/26 02:49:07;;;;;;;1999.90;999.90;;;;;;;;;;5048853;28;20250;-78
2023/12/26 02:51:35;;;;;;;1999.90;999.90;;;;;;;;;;5066365;28;20293;-78
2023/12/26 02:54:02;;;;;;;1999.90;999.90;;;;;;;;;;5067246;28;20243;-80
2023/12/26 02:56:30;;;;;;;1999.90;999.90;;;;;;;;;;5045233;28;20205;-80
2023/12/26 02:58:59;;;;;;;1999.90;999.90;;;;;;;;;;5058243;28;20630;-78
2023/12/26 03:01:26;;;;;;;1999.90;999.90;;;;;;;;;;5064895;28;20188;-79
2023/12/26 03:03:54;;;;;;;1999.90;999.90;;;;;;;;;;5064885;28;20284;-80
2023/12/26 03:06:21;;;;;;;1999.90;999.90;;;;;;;;;;5052069;28;20316;-80
2023/12/26 03:08:48;;;;;;;1999.90;999.90;;;;;;;;;;5047235;28;20279;-79
2023/12/26 03:11:16;;;;;;;1999.90;999.90;;;;;;;;;;5048720;28;20671;-79
2023/12/26 03:13:43;;;;;;;1999.90;999.90;;;;;;;;;;5065361;28;20198;-78
2023/12/26 03:16:12;;;;;;;1999.90;999.90;;;;;;;;;;5048234;28;20235;-78
2023/12/26 03:18:39;;;;;;;1999.90;999.90;;;;;;;;;;5065472;28;20684;-78
2023/12/26 03:21:07;;;;;;;1999.90;999.90;;;;;;;;;;5047505;28;20201;-78
2023/12/26 03:23:34;;;;;;;1999.90;999.90;;;;;;;;;;5048120;28;20217;-78
2023/12/26 03:26:02;;;;;;;1999.90;999.90;;;;;;;;;;5065104;28;20280;-75
2023/12/26 03:28:31;;;;;;;1999.90;999.90;;;;;;;;;;5047223;28;20227;-76
2023/12/26 03:30:59;;;;;;;1999.90;999.90;;;;;;;;;;5064917;28;20193;-77
2023/12/26 03:33:28;;;;;;;1999.90;999.90;;;;;;;;;;5065522;28;20623;-77
2023/12/26 03:35:55;;;;;;;1999.90;999.90;;;;;;;;;;5047350;28;20734;-77
2023/12/26 03:38:22;;;;;;;1999.90;999.90;;;;;;;;;;5065134;28;20190;-75
2023/12/26 03:40:50;;;;;;;1999.90;999.90;;;;;;;;;;5065618;28;20280;-76
2023/12/26 03:43:17;;;;;;;1999.90;999.90;;;;;;;;;;5064524;28;20215;-76
2023/12/26 03:45:45;;;;;;;1999.90;999.90;;;;;;;;;;5048249;28;20607;-76
2023/12/26 03:48:13;;;;;;;1999.90;999.90;;;;;;;;;;5044936;28;20203;-73
2023/12/26 03:50:42;;;;;;;1999.90;999.90;;;;;;;;;;5065515;28;20561;-74
2023/12/26 03:53:09;;;;;;;1999.90;999.90;;;;;;;;;;5046754;28;20192;-75
2023/12/26 03:55:36;;;;;;;1999.90;999.90;;;;;;;;;;5065179;28;20281;-74
2023/12/26 03:58:04;;;;;;;1999.90;999.90;;;;;;;;;;5047188;28;20205;-74
2023/12/26 04:00:31;;;;;;;1999.90;999.90;;;;;;;;;;5067589;28;20228;-74
2023/12/26 04:03:00;;;;;;;1999.90;999.90;;;;;;;;;;5068892;28;20711;-75
2023/12/26 04:05:27;;;;;;;1999.90;999.90;;;;;;;;;;5050297;28;20202;-73
2023/12/26 04:07:56;;;;;;;1999.90;999.90;;;;;;;;;;5068756;28;20277;-74
2023/12/26 04:10:24;;;;;;;1999.90;999.90;;;;;;;;;;5050103;28;20555;-74
2023/12/26 04:12:51;;;;;;;1999.90;999.90;;;;;;;;;;5068915;28;20201;-74
2023/12/26 04:15:18;;;;;;;1999.90;999.90;;;;;;;;;;5050226;28;20206;-75
2023/12/26 04:17:46;;;;;;;1999.90;999.90;;;;;;;;;;5068039;28;20238;-74
2023/12/26 04:20:13;;;;;;;1999.90;999.90;;;;;;;;;;5067747;28;20213;-73
2023/12/26 04:22:40;;;;;;;1999.90;999.90;;;;;;;;;;5068027;28;20213;-75
2023/12/26 04:25:10;;;;;;;1999.90;999.90;;;;;;;;;;5068389;28;20202;-74
2023/12/26 04:27:37;;;;;;;1999.90;999.90;;;;;;;;;;5067978;28;20529;-74
2023/12/26 04:30:05;;;;;;;1999.90;999.90;;;;;;;;;;5067416;28;20359;-74
2023/12/26 04:32:32;;;;;;;1999.90;999.90;;;;;;;;;;5068336;28;20279;-74
2023/12/26 04:35:00;;;;;;;1999.90;999.90;;;;;;;;;;5068024;28;21010;-74
2023/12/26 04:37:27;;;;;;;1999.90;999.90;;;;;;;;;;5068834;28;20221;-74
2023/12/26 04:39:55;;;;;;;1999.90;999.90;;;;;;;;;;5067562;28;20285;-73
2023/12/26 04:42:24;;;;;;;1999.90;999.90;;;;;;;;;;5050020;28;20236;-74
2023/12/26 04:44:51;;;;;;;1999.90;999.90;;;;;;;;;;5067348;28;20668;-73
2023/12/26 04:47:19;;;;;;;1999.90;999.90;;;;;;;;;;5067853;28;20192;-74
2023/12/26 04:49:46;;;;;;;1999.90;999.90;;;;;;;;;;5066813;28;20197;-74
2023/12/26 04:52:14;;;;;;;1999.90;999.90;;;;;;;;;;5067358;28;20533;-74
2023/12/26 04:54:42;;;;;;;1999.90;999.90;;;;;;;;;;5067848;28;20284;-74
2023/12/26 04:57:10;;;;;;;1999.90;999.90;;;;;;;;;;5066390;28;20195;-73
2023/12/26 04:59:40;;;;;;;1999.90;999.90;;;;;;;;;;5067627;28;20198;-73
2023/12/26 05:02:08;;;;;;;1999.90;999.90;;;;;;;;;;5066968;28;20212;-74
2023/12/26 05:04:35;;;;;;;1999.90;999.90;;;;;;;;;;5067417;28;20978;-73
2023/12/26 05:07:03;;;;;;;1999.90;999.90;;;;;;;;;;5067895;28;20644;-73
2023/12/26 05:09:31;;;;;;;1999.90;999.90;;;;;;;;;;5048416;28;20196;-73
2023/12/26 05:11:58;;;;;;;1999.90;999.90;;;;;;;;;;5049746;28;20198;-73
2023/12/26 05:14:26;;;;;;;1999.90;999.90;;;;;;;;;;5048203;28;20215;-75
2023/12/26 05:16:55;;;;;;;1999.90;999.90;;;;;;;;;;5068074;28;20315;-73
2023/12/26 05:19:22;;;;;;;1999.90;999.90;;;;;;;;;;5048144;28;20650;-73
2023/12/26 05:21:49;;;;;;;1999.90;999.90;;;;;;;;;;5067033;28;20661;-73
2023/12/26 05:24:17;;;;;;;1999.90;999.90;;;;;;;;;;5066437;28;20225;-73
2023/12/26 05:26:44;;;;;;;1999.90;999.90;;;;;;;;;;5048741;28;20202;-73
2023/12/26 05:29:12;;;;;;;1999.90;999.90;;;;;;;;;;5067133;28;20216;-73
2023/12/26 05:31:39;;;;;;;1999.90;999.90;;;;;;;;;;5066584;28;20283;-74
2023/12/26 05:34:09;;;;;;;1999.90;999.90;;;;;;;;;;5067414;28;20660;-74
2023/12/26 05:36:36;;;;;;;1999.90;999.90;;;;;;;;;;5066563;28;20194;-73
2023/12/26 05:39:04;;;;;;;1999.90;999.90;;;;;;;;;;5048999;28;20301;-74
2023/12/26 05:41:31;;;;;;;1999.90;999.90;;;;;;;;;;5066273;28;20196;-73
2023/12/26 05:43:59;;;;;;;1999.90;999.90;;;;;;;;;;5066932;28;20257;-73
2023/12/26 05:46:29;;;;;;;1999.90;999.90;;;;;;;;;;5048517;28;20291;-73
2023/12/26 05:48:57;;;;;;;1999.90;999.90;;;;;;;;;;5066521;28;20200;-73
2023/12/26 05:51:26;;;;;;;1999.90;999.90;;;;;;;;;;5066405;28;20197;-73
2023/12/26 05:53:54;;;;;;;1999.90;999.90;;;;;;;;;;5067941;28;20194;-73
2023/12/26 05:56:21;;;;;;;1999.90;999.90;;;;;;;;;;5066777;28;20201;-72
2023/12/26 05:58:49;;;;;;;1999.90;999.90;;;;;;;;;;5048942;28;20232;-73
2023/12/26 06:01:16;;;;;;;1999.90;999.90;;;;;;;;;;5066082;28;20206;-73
2023/12/26 06:03:43;;;;;;;1999.90;999.90;;;;;;;;;;5066557;28;20220;-73
2023/12/26 06:06:12;;;;;;;1999.90;999.90;;;;;;;;;;5066087;28;20197;-74
2023/12/26 06:08:41;;;;;;;1999.90;999.90;;;;;;;;;;5066661;28;20666;-74
2023/12/26 06:11:08;;;;;;;1999.90;999.90;;;;;;;;;;5048134;28;20196;-74
2023/12/26 06:13:36;;;;;;;1999.90;999.90;;;;;;;;;;5048454;28;20286;-75
2023/12/26 06:16:04;;;;;;;1999.90;999.90;;;;;;;;;;5047872;28;20218;-77
2023/12/26 06:18:31;;;;;;;1999.90;999.90;;;;;;;;;;5065637;28;20201;-75
2023/12/26 06:20:59;;;;;;;1999.90;999.90;;;;;;;;;;5067165;28;20198;-77
2023/12/26 06:23:26;;;;;;;1999.90;999.90;;;;;;;;;;5064924;28;20223;-76
2023/12/26 06:25:56;;;;;;;1999.90;999.90;;;;;;;;;;5066844;28;20193;-75
2023/12/26 06:28:23;;;;;;;1999.90;999.90;;;;;;;;;;5065182;28;20598;-76
2023/12/26 06:30:51;;;;;;;1999.90;999.90;;;;;;;;;;5048404;28;20225;-75
2023/12/26 06:33:19;;;;;;;1999.90;999.90;;;;;;;;;;5065444;28;20662;-76
2023/12/26 06:35:46;;;;;;;1999.90;999.90;;;;;;;;;;5068499;28;20198;-75
2023/12/26 06:38:14;;;;;;;1999.90;999.90;;;;;;;;;;5066459;28;20205;-75
2023/12/26 06:40:41;;;;;;;1999.90;999.90;;;;;;;;;;5065989;28;20280;-73
2023/12/26 06:43:10;;;;;;;1999.90;999.90;;;;;;;;;;5066000;28;20280;-73
2023/12/26 06:45:38;;;;;;;1999.90;999.90;;;;;;;;;;5065350;28;20198;-74
2023/12/26 06:48:05;;;;;;;1999.90;999.90;;;;;;;;;;5065852;28;20239;-72
2023/12/26 06:50:33;;;;;;;1999.90;999.90;;;;;;;;;;5047374;28;20598;-73
2023/12/26 06:53:00;;;;;;;1999.90;999.90;;;;;;;;;;5065926;28;20204;-73
2023/12/26 06:55:27;;;;;;;1999.90;999.90;;;;;;;;;;5064153;28;20649;-73
2023/12/26 06:57:55;;;;;;;1999.90;999.90;;;;;;;;;;5065390;28;20284;-73
2023/12/26 07:00:24;;;;;;;1999.90;999.90;;;;;;;;;;5063321;28;20196;-73
2023/12/26 07:02:53;;;;;;;1999.90;999.90;;;;;;;;;;5064996;28;20724;-73
2023/12/26 07:05:21;;;;;;;1999.90;999.90;;;;;;;;;;5047534;28;20187;-73
2023/12/26 07:07:48;;;;;;;1999.90;999.90;;;;;;;;;;5065256;28;20194;-74
2023/12/26 07:10:15;;;;;;;1999.90;999.90;;;;;;;;;;5065393;28;20291;-73
2023/12/26 07:12:43;;;;;;;1999.90;999.90;;;;;;;;;;5065125;28;20189;-73
2023/12/26 07:15:11;;;;;;;1999.90;999.90;;;;;;;;;;5065782;28;20274;-73
2023/12/26 07:17:39;;;;;;;1999.90;999.90;;;;;;;;;;5065567;28;20239;-73
2023/12/26 07:20:08;;;;;;;1999.90;999.90;;;;;;;;;;5064599;28;20480;-74
2023/12/26 07:22:36;;;;;;;1999.90;999.90;;;;;;;;;;5065615;28;20200;-74
2023/12/26 07:25:03;;;;;;;1999.90;999.90;;;;;;;;;;5047088;28;20229;-74
2023/12/26 07:27:31;;;;;;;1999.90;999.90;;;;;;;;;;5065389;28;20282;-73
2023/12/26 07:29:59;;;;;;;1999.90;999.90;;;;;;;;;;5046664;28;20200;-73
2023/12/26 07:32:26;;;;;;;1999.90;999.90;;;;;;;;;;5064812;28;20196;-72
2023/12/26 07:34:55;;;;;;;1999.90;999.90;;;;;;;;;;5050866;28;20210;-73
2023/12/26 07:37:24;;;;;;;1999.90;999.90;;;;;;;;;;5069191;28;20311;-73
2023/12/26 07:39:50;;;;;;;1999.90;999.90;;;;;;;;;;5070248;28;21089;-73
2023/12/26 07:42:18;;;;;;;1999.90;999.90;;;;;;;;;;5070514;28;20596;-73
2023/12/26 07:44:45;;;;;;;1999.90;999.90;;;;;;;;;;5069077;28;20217;-73
2023/12/26 07:47:15;;;;;;;1999.90;999.90;;;;;;;;;;5069536;28;21017;-72
2023/12/26 07:49:42;;;;;;;1999.90;999.90;;;;;;;;;;5050333;28;20191;-72
2023/12/26 07:52:11;;;;;;;1999.90;999.90;;;;;;;;;;5072745;28;20202;-72
2023/12/26 07:54:38;;;;;;;1999.90;999.90;;;;;;;;;;5069929;28;20549;-72
2023/12/26 07:57:06;;;;;;;1999.90;999.90;;;;;;;;;;5069149;28;20196;-73
2023/12/26 07:59:33;;;;;;;1999.90;999.90;;;;;;;;;;5067721;28;20184;-73
2023/12/26 08:02:00;;;;;;;1999.90;999.90;;;;;;;;;;5051100;28;20549;-73
2023/12/26 08:04:28;;;;;;;1999.90;999.90;;;;;;;;;;5068227;28;20567;-72
2023/12/26 08:06:55;;;;;;;1999.90;999.90;;;;;;;;;;5068559;28;20196;-73
2023/12/26 08:09:24;;;;;;;1999.90;999.90;;;;;;;;;;5068556;28;20199;-73
2023/12/26 08:11:51;;;;;;;1999.90;999.90;;;;;;;;;;5049768;28;20299;-72
2023/12/26 08:14:19;;;;;;;1999.90;999.90;;;;;;;;;;5051105;28;20767;-72
2023/12/26 08:16:46;;;;;;;1999.90;999.90;;;;;;;;;;5067716;28;20241;-72
2023/12/26 08:19:14;;;;;;;1999.90;999.90;;;;;;;;;;5050090;28;20688;-72
2023/12/26 08:21:41;;;;;;;1999.90;999.90;;;;;;;;;;5049875;28;20199;-73
2023/12/26 08:24:09;;;;;;;1999.90;999.90;;;;;;;;;;5069221;28;20226;-73
2023/12/26 08:26:38;;;;;;;1999.90;999.90;;;;;;;;;;5068215;28;20196;-73
2023/12/26 08:29:05;;;;;;;1999.90;999.90;;;;;;;;;;5061859;28;20203;-73
2023/12/26 08:31:33;;;;;;;1999.90;999.90;;;;;;;;;;5068098;28;20673;-72
2023/12/26 08:34:01;;;;;;;1999.90;999.90;;;;;;;;;;5070209;28;20644;-73
2023/12/26 08:36:28;;;;;;;1999.90;999.90;;;;;;;;;;5052749;28;20287;-72
2023/12/26 08:38:55;;;;;;;1999.90;999.90;;;;;;;;;;5068653;28;20203;-73
2023/12/26 08:41:23;;;;;;;1999.90;999.90;;;;;;;;;;5068439;28;20199;-73
2023/12/26 08:43:52;;;;;;;1999.90;999.90;;;;;;;;;;5049326;28;20220;-72
2023/12/26 08:46:19;;;;;;;1999.90;999.90;;;;;;;;;;5067229;28;20195;-73
2023/12/26 08:48:47;;;;;;;1999.90;999.90;;;;;;;;;;5067620;28;20413;-72
2023/12/26 08:51:15;;;;;;;1999.90;999.90;;;;;;;;;;5049541;28;20207;-73
2023/12/26 08:53:42;;;;;;;1999.90;999.90;;;;;;;;;;5067894;28;20197;-72
2023/12/26 08:56:10;;;;;;;1999.90;999.90;;;;;;;;;;5049005;28;20322;-73
2023/12/26 08:58:37;;;;;;;1999.90;999.90;;;;;;;;;;5067009;28;20206;-73
2023/12/26 09:01:09;;;;;;;1999.90;999.90;;;;;;;;;;5067682;28;20207;-72
2023/12/26 09:03:37;;;;;;;1999.90;999.90;;;;;;;;;;5066898;28;20234;-73
2023/12/26 09:06:05;;;;;;;1999.90;999.90;;;;;;;;;;5068000;28;20282;-73
2023/12/26 09:08:32;;;;;;;1999.90;999.90;;;;;;;;;;5067026;28;20222;-72
2023/12/26 09:11:00;;;;;;;1999.90;999.90;;;;;;;;;;5067642;28;20196;-73
2023/12/26 09:13:27;;;;;;;1999.90;999.90;;;;;;;;;;5067295;28;20279;-73
2023/12/26 09:15:54;;;;;;;1999.90;999.90;;;;;;;;;;5048903;28;20239;-74
2023/12/26 09:18:24;;;;;;;1999.90;999.90;;;;;;;;;;5066949;28;20263;-73
2023/12/26 09:20:51;;;;;;;1999.90;999.90;;;;;;;;;;5066348;28;20206;-73
2023/12/26 09:23:20;;;;;;;1999.90;999.90;;;;;;;;;;5067457;28;20565;-73
2023/12/26 09:25:48;;;;;;;1999.90;999.90;;;;;;;;;;5066426;28;20216;-73
2023/12/26 09:28:15;;;;;;;1999.90;999.90;;;;;;;;;;5043445;28;20210;-74
2023/12/26 09:30:42;;;;;;;1999.90;999.90;;;;;;;;;;5066141;28;20197;-74
2023/12/26 09:33:10;;;;;;;1999.90;999.90;;;;;;;;;;5048923;28;20232;-74
2023/12/26 09:35:38;;;;;;;1999.90;999.90;;;;;;;;;;5048282;28;20208;-73
2023/12/26 09:38:06;;;;;;;1999.90;999.90;;;;;;;;;;5066559;28;20202;-74
2023/12/26 09:40:34;;;;;;;1999.90;999.90;;;;;;;;;;5067154;28;20204;-73
2023/12/26 09:43:03;;;;;;;1999.90;999.90;;;;;;;;;;5065675;28;20276;-74
2023/12/26 09:45:32;;;;;;;1999.90;999.90;;;;;;;;;;5067320;28;20306;-74
2023/12/26 09:47:59;;;;;;;1999.90;999.90;;;;;;;;;;5066018;28;20281;-73
2023/12/26 09:50:28;;;;;;;1999.90;999.90;;;;;;;;;;5067105;28;20664;-73
2023/12/26 09:53:01;;;;;;;1999.90;999.90;;;;;;;;;;5065823;28;20194;-73
2023/12/26 09:55:28;;;;;;;1999.90;999.90;;;;;;;;;;5066988;28;20191;-74
2023/12/26 09:57:58;;;;;;;1999.90;999.90;;;;;;;;;;5055749;28;20208;-73
2023/12/26 10:00:27;;;;;;;1999.90;999.90;;;;;;;;;;5066023;28;20198;-73
2023/12/26 10:02:55;;;;;;;1999.90;999.90;;;;;;;;;;5047693;28;20203;-73
2023/12/26 10:05:23;;;;;;;1999.90;999.90;;;;;;;;;;5065697;28;20222;-73
2023/12/26 10:07:50;;;;;;;1999.90;999.90;;;;;;;;;;5047194;28;20221;-74
2023/12/26 10:10:20;;;;;;;1999.90;999.90;;;;;;;;;;5065952;28;20202;-74
2023/12/26 10:12:48;;;;;;;1999.90;999.90;;;;;;;;;;5047813;28;20194;-74
2023/12/26 10:15:15;;;;;;;1999.90;999.90;;;;;;;;;;5066310;28;20218;-73
2023/12/26 10:17:43;;;;;;;1999.90;999.90;;;;;;;;;;5052617;28;20317;-73
2023/12/26 10:20:12;;;;;;;1999.90;999.90;;;;;;;;;;5066427;28;20199;-74
2023/12/26 10:22:42;;;;;;;1999.90;999.90;;;;;;;;;;5047771;28;20195;-74
2023/12/26 10:25:10;;;;;;;1999.90;999.90;;;;;;;;;;5043641;28;20215;-74
2023/12/26 10:27:40;;;;;;;1999.90;999.90;;;;;;;;;;5065730;28;20199;-74
2023/12/26 10:30:08;;;;;;;1999.90;999.90;;;;;;;;;;5047788;28;20187;-73
2023/12/26 10:32:36;;;;;;;1999.90;999.90;;;;;;;;;;5066193;28;20254;-74
2023/12/26 10:35:14;;;;;;;1999.90;999.90;;;;;;;;;;5064523;28;20438;-74
2023/12/26 10:37:42;;;;;;;1999.90;999.90;;;;;;;;;;5066280;28;20206;-72
2023/12/26 10:40:10;;;;;;;1999.90;999.90;;;;;;;;;;5065337;28;20204;-72
2023/12/26 10:42:40;;;;;;;1999.90;999.90;;;;;;;;;;5065908;28;20198;-70
2023/12/26 10:45:10;;;;;;;1999.90;999.90;;;;;;;;;;5065190;28;20221;-72
2023/12/26 10:47:38;;;;;;;1999.90;999.90;;;;;;;;;;5059019;28;20645;-72
2023/12/26 10:50:08;;;;;;;1999.90;999.90;;;;;;;;;;5061879;28;20629;-72
2023/12/26 10:52:38;;;;;;;1999.90;999.90;;;;;;;;;;5065608;28;20282;-72
2023/12/26 10:55:07;;;;;;;1999.90;999.90;;;;;;;;;;5047979;28;20222;-73
2023/12/26 10:57:35;;;;;;;1999.90;999.90;;;;;;;;;;5064687;28;20187;-73
2023/12/26 13:51:41;;;;;;;1999.90;999.90;;;;;;;;;;5062540;28;20174;-70
2023/12/26 13:54:27;;;;;;;1999.90;999.90;;;;;;;;;;5065491;28;20204;-69
2023/12/26 13:57:13;;;;;;;1999.90;999.90;;;;;;;;;;5066619;28;20197;-70
2023/12/26 13:59:59;;;;;;;1999.90;999.90;;;;;;;;;;5056295;28;20205;-70
2023/12/26 14:02:45;;;;;;;1999.90;999.90;;;;;;;;;;5047746;28;20189;-70
2023/12/26 14:05:30;;;;;;;1999.90;999.90;;;;;;;;;;5063326;28;20246;-69
2023/12/26 14:08:17;;;;;;;1999.90;999.90;;;;;;;;;;5065391;28;20205;-69
2023/12/26 14:11:03;;;;;;;1999.90;999.90;;;;;;;;;;5063943;28;20199;-69
2023/12/26 14:13:49;;;;;;;1999.90;999.90;;;;;;;;;;5045862;28;20640;-70
2023/12/26 14:16:35;;;;;;;1999.90;999.90;;;;;;;;;;5046209;28;20239;-69
2023/12/26 14:19:21;;;;;;;1999.90;999.90;;;;;;;;;;5065926;28;20204;-70
2023/12/26 14:22:07;;;;;;;1999.90;999.90;;;;;;;;;;5048012;28;20201;-69
2023/12/26 14:24:53;;;;;;;1999.90;999.90;;;;;;;;;;5044176;28;20224;-69
2023/12/26 14:27:39;;;;;;;1999.90;999.90;;;;;;;;;;5065174;28;20196;-69
2023/12/26 14:30:25;;;;;;;1999.90;999.90;;;;;;;;;;5059245;28;20201;-71
2023/12/26 14:33:11;;;;;;;1999.90;999.90;;;;;;;;;;5065495;28;20203;-70
2023/12/26 14:35:57;;;;;;;1999.90;999.90;;;;;;;;;;5060266;28;20204;-71
2023/12/26 14:38:43;;;;;;;1999.90;999.90;;;;;;;;;;5065547;28;20223;-72
2023/12/26 14:41:29;;;;;;;1999.90;999.90;;;;;;;;;;5067190;28;20257;-70
2023/12/26 14:44:15;;;;;;;1999.90;999.90;;;;;;;;;;5055390;28;20216;-70
2023/12/26 14:47:01;;;;;;;1999.90;999.90;;;;;;;;;;5064494;28;20200;-71
2023/12/26 14:49:47;;;;;;;1999.90;999.90;;;;;;;;;;5067250;28;20197;-71
2023/12/26 14:52:33;;;;;;;1999.90;999.90;;;;;;;;;;5065318;28;20197;-70
2023/12/26 14:55:19;;;;;;;1999.90;999.90;;;;;;;;;;5065379;28;20205;-71
2023/12/26 14:58:05;;;;;;;1999.90;999.90;;;;;;;;;;5050080;28;20200;-71
2023/12/26 15:00:51;;;;;;;1999.90;999.90;;;;;;;;;;5046796;28;20606;-71
2023/12/26 15:03:20;;;;;;;1999.90;999.90;;;;;;;;;;5053077;28;20711;-71
2023/12/26 15:05:47;;;;;;;1999.90;999.90;;;;;;;;;;5047302;28;20652;-70
2023/12/26 15:08:15;;;;;;;1999.90;999.90;;;;;;;;;;5045827;28;20192;-71
2023/12/26 15:10:42;;;;;;;1999.90;999.90;;;;;;;;;;5065523;28;20689;-71
2023/12/26 15:13:09;;;;;;;1999.90;999.90;;;;;;;;;;5047418;28;20205;-70
2023/12/26 15:15:37;;;;;;;1999.90;999.90;;;;;;;;;;5064976;28;20185;-71
2023/12/26 15:18:05;;;;;;;1999.90;999.90;;;;;;;;;;5046767;28;20553;-71
2023/12/26 15:20:33;;;;;;;1999.90;999.90;;;;;;;;;;5064644;28;20223;-71
2023/12/26 15:23:01;;;;;;;1999.90;999.90;;;;;;;;;;5065567;28;20184;-71
2023/12/26 15:25:28;;;;;;;1999.90;999.90;;;;;;;;;;5064570;28;20246;-71
2023/12/26 15:27:55;;;;;;;1999.90;999.90;;;;;;;;;;5065089;28;20190;-71
2023/12/26 15:30:23;;;;;;;1999.90;999.90;;;;;;;;;;5064676;28;20192;-71
2023/12/26 15:32:51;;;;;;;1999.90;999.90;;;;;;;;;;5047592;28;20210;-71
2023/12/26 15:35:19;;;;;;;1999.90;999.90;;;;;;;;;;5066546;28;20201;-71
2023/12/26 15:37:48;;;;;;;1999.90;999.90;;;;;;;;;;5065640;28;20808;-71
2023/12/26 15:40:15;;;;;;;1999.90;999.90;;;;;;;;;;5047922;28;20674;-71
2023/12/26 15:42:43;;;;;;;1999.90;999.90;;;;;;;;;;5046436;28;20199;-71
2023/12/26 15:45:10;;;;;;;1999.90;999.90;;;;;;;;;;5065640;28;20209;-72
2023/12/26 15:47:38;;;;;;;1999.90;999.90;;;;;;;;;;5064072;28;20294;-72
2023/12/26 15:50:06;;;;;;;1999.90;999.90;;;;;;;;;;5047437;28;20207;-72
2023/12/26 15:52:33;;;;;;;1999.90;999.90;;;;;;;;;;5046601;28;20197;-71
2023/12/26 15:55:02;;;;;;;1999.90;999.90;;;;;;;;;;5066930;28;20219;-72
2023/12/26 15:57:29;;;;;;;1999.90;999.90;;;;;;;;;;5050095;28;20673;-71
2023/12/26 15:59:57;;;;;;;1999.90;999.90;;;;;;;;;;5050494;28;20542;-73
2023/12/26 16:02:24;;;;;;;1999.90;999.90;;;;;;;;;;5068288;28;20236;-71
2023/12/26 16:04:55;;;;;;;1999.90;999.90;;;;;;;;;;5068077;28;20192;-72
2023/12/26 16:07:22;;;;;;;1999.90;999.90;;;;;;;;;;5068001;28;20189;-72
2023/12/26 16:09:50;;;;;;;1999.90;999.90;;;;;;;;;;5067870;28;20199;-73
2023/12/26 16:12:19;;;;;;;1999.90;999.90;;;;;;;;;;5068219;28;20655;-73
2023/12/26 16:14:47;;;;;;;1999.90;999.90;;;;;;;;;;5068716;28;20196;-74
2023/12/26 16:17:14;;;;;;;1999.90;999.90;;;;;;;;;;5049251;28;20236;-74
2023/12/26 16:19:41;;;;;;;1999.90;999.90;;;;;;;;;;5069670;28;20241;-71
2023/12/26 16:22:09;;;;;;;1999.90;999.90;;;;;;;;;;5068117;28;20222;-71
2023/12/26 16:24:38;;;;;;;1999.90;999.90;;;;;;;;;;5068461;28;20215;-70
2023/12/26 16:27:05;;;;;;;1999.90;999.90;;;;;;;;;;5067270;28;20223;-71
2023/12/26 16:29:34;;;;;;;1999.90;999.90;;;;;;;;;;5067674;28;20291;-71
2023/12/26 16:32:02;;;;;;;1999.90;999.90;;;;;;;;;;5067931;28;20651;-71
2023/12/26 16:34:30;;;;;;;1999.90;999.90;;;;;;;;;;5067514;28;20185;-71
2023/12/26 16:36:57;;;;;;;1999.90;999.90;;;;;;;;;;5050226;28;20246;-72
2023/12/26 16:39:24;;;;;;;1999.90;999.90;;;;;;;;;;5067212;28;20211;-71
2023/12/26 16:42:00;;;;;;;1999.90;999.90;;;;;;;;;;5068258;28;20654;-72
2023/12/26 16:44:27;;;;;;;1999.90;999.90;;;;;;;;;;5067316;28;20188;-71